createdAt,value
2022-10-04T00:00:01.593Z,1.60
2022-10-04T00:01:03.812Z,1.90
2022-10-04T00:02:01.689Z,1.90
2022-10-04T00:03:01.616Z,1.80
2022-10-04T00:04:01.533Z,1.80
2022-10-04T00:05:01.529Z,1.50
2022-10-04T00:06:01.517Z,2.00
2022-10-04T00:08:21.332Z,1.50
2022-10-04T00:09:21.167Z,1.40
2022-10-04T00:10:21.158Z,1.90
2022-10-04T00:11:21.311Z,1.60
2022-10-04T00:12:21.154Z,1.70
2022-10-04T00:13:28.642Z,2.20
2022-10-04T00:14:28.634Z,1.70
2022-10-04T00:15:28.621Z,1.60
2022-10-04T00:16:29.882Z,2.00
2022-10-04T00:17:28.608Z,1.80
2022-10-04T00:18:28.693Z,1.60
2022-10-04T00:19:28.597Z,1.70
2022-10-04T00:22:50.354Z,1.60
2022-10-04T00:23:57.422Z,1.60
2022-10-04T00:24:57.420Z,1.80
2022-10-04T00:25:57.408Z,1.90
2022-10-04T00:26:57.404Z,1.80
2022-10-04T00:28:00.663Z,1.80
2022-10-04T00:28:57.436Z,1.40
2022-10-04T00:29:57.364Z,2.00
2022-10-04T00:30:57.396Z,2.00
2022-10-04T00:31:57.344Z,1.30
2022-10-04T00:32:57.344Z,1.70
2022-10-04T00:33:59.552Z,1.70
2022-10-04T00:34:57.351Z,1.60
2022-10-04T00:35:49.787Z,1.50
2022-10-04T00:36:49.782Z,1.40
2022-10-04T00:37:49.751Z,2.00
2022-10-04T00:38:49.753Z,1.30
2022-10-04T00:39:50.473Z,1.80
2022-10-04T00:40:49.724Z,1.70
2022-10-04T00:41:49.720Z,1.70
2022-10-04T00:42:49.725Z,1.80
2022-10-04T00:43:49.711Z,1.90
2022-10-04T00:44:49.688Z,1.70
2022-10-04T00:45:50.654Z,1.30
2022-10-04T00:46:49.660Z,1.60
2022-10-04T00:47:49.673Z,1.60
2022-10-04T00:48:49.661Z,1.60
2022-10-04T00:49:49.640Z,2.20
2022-10-04T00:50:49.640Z,1.60
2022-10-04T00:51:49.979Z,2.10
2022-10-04T00:52:49.599Z,1.80
2022-10-04T00:53:49.590Z,2.00
2022-10-04T00:54:49.570Z,1.90
2022-10-04T00:55:49.559Z,1.70
2022-10-04T00:56:49.549Z,2.30
2022-10-04T00:57:49.750Z,1.90
2022-10-04T00:58:49.547Z,2.10
2022-10-04T00:59:49.514Z,1.70
2022-10-04T01:00:49.580Z,1.80
2022-10-04T01:01:49.525Z,1.80
2022-10-04T01:02:49.510Z,1.70
2022-10-04T01:03:49.649Z,2.00
2022-10-04T01:04:49.469Z,1.80
2022-10-04T01:05:49.457Z,2.00
2022-10-04T01:06:49.446Z,1.60
2022-10-04T01:07:49.430Z,1.60
2022-10-04T01:08:49.416Z,1.80
2022-10-04T01:09:49.643Z,1.60
2022-10-04T01:10:49.428Z,1.70
2022-10-04T01:11:49.410Z,2.10
2022-10-04T01:12:49.480Z,1.90
2022-10-04T01:13:49.360Z,1.60
2022-10-04T01:14:49.350Z,2.00
2022-10-04T01:15:49.522Z,1.70
2022-10-04T01:16:49.331Z,1.80
2022-10-04T01:17:49.312Z,1.70
2022-10-04T01:18:49.325Z,1.60
2022-10-04T01:19:49.294Z,1.70
2022-10-04T01:20:49.292Z,1.50
2022-10-04T01:21:49.441Z,1.90
2022-10-04T01:22:49.270Z,1.90
2022-10-04T01:23:49.323Z,1.80
2022-10-04T01:24:49.252Z,1.60
2022-10-04T01:25:49.243Z,1.50
2022-10-04T01:26:49.240Z,1.70
2022-10-04T01:27:58.991Z,1.70
2022-10-04T01:28:49.312Z,1.90
2022-10-04T01:29:51.665Z,1.50
2022-10-04T01:30:56.760Z,1.60
2022-10-04T01:31:49.192Z,1.40
2022-10-04T01:32:49.273Z,1.60
2022-10-04T01:33:49.311Z,1.60
2022-10-04T01:34:49.139Z,1.60
2022-10-04T01:35:57.851Z,1.60
2022-10-04T01:36:56.637Z,1.70
2022-10-04T01:37:49.121Z,1.80
2022-10-04T01:38:49.094Z,1.60
2022-10-04T01:39:49.085Z,1.60
2022-10-04T01:40:49.075Z,1.50
2022-10-04T01:41:49.265Z,1.40
2022-10-04T01:42:49.049Z,1.70
2022-10-04T01:43:49.069Z,1.70
2022-10-04T01:44:49.046Z,1.60
2022-10-04T01:45:49.116Z,1.90
2022-10-04T01:46:49.109Z,2.00
2022-10-04T01:47:49.153Z,1.50
2022-10-04T01:48:48.985Z,1.70
2022-10-04T01:49:48.980Z,1.50
2022-10-04T01:50:49.118Z,2.10
2022-10-04T01:51:48.964Z,1.90
2022-10-04T01:52:48.956Z,1.80
2022-10-04T01:53:48.946Z,2.10
2022-10-04T01:54:48.928Z,2.00
2022-10-04T01:55:49.236Z,2.00
2022-10-04T01:56:48.935Z,2.00
2022-10-04T01:57:48.904Z,1.90
2022-10-04T01:58:48.894Z,1.80
2022-10-04T01:59:48.866Z,1.90
2022-10-04T02:00:48.894Z,1.70
2022-10-04T02:01:48.984Z,1.70
2022-10-04T02:02:48.834Z,1.50
2022-10-04T02:03:48.838Z,2.40
2022-10-04T02:04:48.861Z,1.80
2022-10-04T02:05:48.795Z,1.80
2022-10-04T02:06:49.167Z,1.80
2022-10-04T02:07:48.779Z,1.70
2022-10-04T02:08:48.785Z,2.00
2022-10-04T02:09:48.777Z,1.80
2022-10-04T02:10:48.746Z,2.00
2022-10-04T02:11:48.740Z,2.20
2022-10-04T02:12:49.131Z,2.00
2022-10-04T02:13:48.708Z,1.80
2022-10-04T02:14:48.703Z,1.90
2022-10-04T02:15:48.766Z,1.80
2022-10-04T02:16:48.689Z,2.00
2022-10-04T02:17:48.680Z,1.90
2022-10-04T02:18:48.905Z,1.90
2022-10-04T02:19:48.654Z,1.80
2022-10-04T02:20:48.662Z,1.80
2022-10-04T02:21:48.621Z,2.10
2022-10-04T02:22:48.623Z,1.80
2022-10-04T02:23:48.604Z,1.70
2022-10-04T02:24:48.816Z,2.00
2022-10-04T02:25:48.592Z,1.80
2022-10-04T02:26:48.574Z,2.10
2022-10-04T02:27:48.578Z,2.10
2022-10-04T02:28:48.569Z,2.00
2022-10-04T02:29:48.784Z,1.80
2022-10-04T02:30:48.520Z,2.30
2022-10-04T02:31:57.086Z,1.90
2022-10-04T02:32:48.528Z,2.00
2022-10-04T02:33:48.506Z,2.10
2022-10-04T02:34:48.491Z,2.00
2022-10-04T02:35:48.651Z,2.10
2022-10-04T02:36:48.460Z,1.90
2022-10-04T02:37:48.464Z,1.90
2022-10-04T02:38:48.436Z,1.70
2022-10-04T02:39:48.429Z,2.10
2022-10-04T02:40:48.435Z,2.20
2022-10-04T02:41:48.694Z,1.90
2022-10-04T02:42:48.407Z,2.30
2022-10-04T02:43:48.404Z,1.90
2022-10-04T02:44:48.367Z,1.90
2022-10-04T02:45:48.375Z,1.70
2022-10-04T02:46:48.396Z,2.30
2022-10-04T02:47:48.514Z,2.10
2022-10-04T02:48:48.327Z,2.00
2022-10-04T02:49:48.329Z,1.90
2022-10-04T02:50:48.305Z,1.70
2022-10-04T02:51:58.017Z,1.90
2022-10-04T02:52:48.278Z,2.20
2022-10-04T02:53:48.330Z,2.20
2022-10-04T02:54:48.257Z,2.40
2022-10-04T02:55:48.256Z,2.10
2022-10-04T02:56:48.241Z,1.90
2022-10-04T02:57:48.382Z,2.10
2022-10-04T02:58:48.217Z,2.10
2022-10-04T02:59:48.210Z,2.30
2022-10-04T03:00:48.282Z,2.40
2022-10-04T03:01:48.296Z,1.90
2022-10-04T03:02:48.310Z,1.80
2022-10-04T03:03:48.557Z,2.20
2022-10-04T03:04:48.141Z,2.60
2022-10-04T03:05:48.146Z,2.30
2022-10-04T03:06:48.129Z,2.30
2022-10-04T03:07:48.120Z,2.20
2022-10-04T03:08:48.110Z,2.20
2022-10-04T03:09:48.308Z,2.00
2022-10-04T03:10:48.082Z,2.60
2022-10-04T03:11:48.076Z,2.60
2022-10-04T03:12:48.059Z,2.20
2022-10-04T03:13:48.057Z,2.20
2022-10-04T03:14:48.049Z,2.50
2022-10-04T03:15:48.449Z,2.10
2022-10-04T03:16:48.026Z,2.20
2022-10-04T03:17:48.028Z,2.00
2022-10-04T03:18:48.016Z,2.90
2022-10-04T03:19:47.987Z,3.30
2022-10-04T03:20:47.971Z,4.60
2022-10-04T03:21:48.129Z,4.70
2022-10-04T03:22:47.958Z,4.60
2022-10-04T03:23:47.940Z,5.50
2022-10-04T03:24:47.928Z,5.80
2022-10-04T03:25:47.917Z,6.30
2022-10-04T03:26:57.634Z,6.60
2022-10-04T03:27:47.899Z,6.00
2022-10-04T03:28:47.885Z,5.80
2022-10-04T03:29:47.878Z,4.90
2022-10-04T03:30:47.865Z,3.90
2022-10-04T03:31:47.904Z,3.50
2022-10-04T03:32:48.165Z,3.50
2022-10-04T03:33:47.838Z,2.90
2022-10-04T03:34:47.831Z,2.50
2022-10-04T03:35:47.835Z,2.70
2022-10-04T03:36:47.816Z,2.60
2022-10-04T03:37:47.791Z,2.50
2022-10-04T03:38:48.090Z,2.80
2022-10-04T03:39:47.793Z,2.20
2022-10-04T03:40:47.776Z,2.30
2022-10-04T03:41:56.280Z,2.80
2022-10-04T03:43:23.315Z,2.50
2022-10-04T03:44:00.413Z,2.60
2022-10-04T03:47:10.647Z,2.40
2022-10-04T03:48:18.154Z,2.40
2022-10-04T03:49:19.364Z,2.30
2022-10-04T03:50:27.663Z,2.70
2022-10-04T03:51:18.126Z,2.30
2022-10-04T03:52:18.082Z,2.60
2022-10-04T03:53:10.569Z,2.60
2022-10-04T03:54:10.577Z,2.60
2022-10-04T03:55:10.722Z,2.50
2022-10-04T03:56:10.540Z,2.80
2022-10-04T03:57:10.527Z,2.70
2022-10-04T03:58:10.519Z,2.30
2022-10-04T03:59:10.511Z,2.50
2022-10-04T04:00:10.494Z,2.30
2022-10-04T04:01:10.756Z,2.10
2022-10-04T04:02:10.516Z,2.50
2022-10-04T04:03:10.469Z,2.70
2022-10-04T04:04:10.467Z,2.70
2022-10-04T04:05:10.458Z,2.70
2022-10-04T04:06:10.429Z,2.60
2022-10-04T04:07:10.752Z,2.30
2022-10-04T04:08:10.409Z,2.60
2022-10-04T04:09:10.413Z,2.60
2022-10-04T04:10:14.562Z,2.40
2022-10-04T04:11:11.379Z,2.70
2022-10-04T04:12:10.362Z,2.40
2022-10-04T04:13:10.601Z,2.20
2022-10-04T04:14:10.349Z,2.40
2022-10-04T04:15:10.354Z,2.70
2022-10-04T04:16:10.357Z,2.50
2022-10-04T04:17:10.311Z,2.50
2022-10-04T04:18:10.300Z,2.80
2022-10-04T04:19:10.449Z,2.70
2022-10-04T04:20:10.281Z,2.20
2022-10-04T04:21:10.355Z,2.60
2022-10-04T04:22:10.303Z,2.60
2022-10-04T04:23:10.281Z,2.80
2022-10-04T04:24:10.586Z,3.00
2022-10-04T04:25:10.233Z,2.30
2022-10-04T04:26:10.225Z,2.50
2022-10-04T04:27:10.241Z,2.60
2022-10-04T04:28:10.260Z,2.40
2022-10-04T04:29:10.202Z,2.50
2022-10-04T04:30:10.360Z,2.50
2022-10-04T04:31:10.167Z,2.80
2022-10-04T04:32:10.255Z,2.70
2022-10-04T04:33:10.172Z,2.70
2022-10-04T04:34:10.151Z,2.90
2022-10-04T04:35:10.130Z,2.60
2022-10-04T04:38:27.327Z,2.80
2022-10-04T04:39:27.062Z,2.40
2022-10-04T04:40:27.045Z,2.70
2022-10-04T04:41:27.100Z,2.60
2022-10-04T04:42:27.017Z,3.30
2022-10-04T04:43:27.051Z,2.80
2022-10-04T04:44:27.225Z,2.70
2022-10-04T04:45:27.077Z,2.60
2022-10-04T04:46:28.161Z,2.80
2022-10-04T04:47:26.968Z,2.40
2022-10-04T04:48:26.972Z,2.60
2022-10-04T04:49:26.945Z,2.60
2022-10-04T04:50:27.101Z,2.70
2022-10-04T04:51:34.459Z,2.70
2022-10-04T04:52:26.913Z,2.70
2022-10-04T04:53:26.895Z,2.70
2022-10-04T04:54:26.893Z,2.90
2022-10-04T04:55:26.875Z,2.70
2022-10-04T04:56:27.076Z,2.80
2022-10-04T04:57:26.862Z,3.30
2022-10-04T04:58:26.835Z,3.40
2022-10-04T04:59:26.824Z,3.70
2022-10-04T05:00:26.820Z,3.30
2022-10-04T05:01:26.913Z,3.30
2022-10-04T05:02:26.998Z,3.30
2022-10-04T05:03:26.792Z,3.20
2022-10-04T05:04:26.772Z,3.00
2022-10-04T05:05:26.772Z,3.00
2022-10-04T05:06:26.760Z,3.10
2022-10-04T05:07:26.746Z,3.20
2022-10-04T05:08:27.073Z,3.10
2022-10-04T05:09:26.728Z,2.70
2022-10-04T05:10:26.723Z,3.00
2022-10-04T05:11:26.705Z,2.60
2022-10-04T05:12:26.702Z,3.70
2022-10-04T05:13:26.693Z,3.20
2022-10-04T05:14:26.838Z,3.80
2022-10-04T05:15:26.672Z,3.30
2022-10-04T05:16:26.987Z,3.20
2022-10-04T05:17:26.654Z,25.20
2022-10-04T05:18:26.628Z,5.20
2022-10-04T05:19:26.634Z,4.40
2022-10-04T05:20:26.614Z,4.10
2022-10-04T05:21:26.594Z,3.80
2022-10-04T05:22:26.603Z,3.50
2022-10-04T05:23:26.582Z,3.10
2022-10-04T05:24:26.556Z,3.30
2022-10-04T05:25:26.544Z,3.40
2022-10-04T05:26:26.541Z,2.90
2022-10-04T05:27:26.555Z,3.60
2022-10-04T05:28:26.782Z,3.20
2022-10-04T05:29:26.517Z,3.50
2022-10-04T05:30:26.503Z,3.80
2022-10-04T05:31:26.558Z,3.30
2022-10-04T05:32:26.464Z,3.10
2022-10-04T05:33:28.625Z,3.10
2022-10-04T05:34:27.832Z,3.50
2022-10-04T05:35:26.450Z,3.30
2022-10-04T05:36:26.439Z,3.20
2022-10-04T05:37:26.425Z,3.40
2022-10-04T05:38:26.413Z,3.50
2022-10-04T05:39:26.402Z,3.70
2022-10-04T05:40:26.558Z,3.30
2022-10-04T05:41:29.142Z,3.70
2022-10-04T05:42:27.363Z,3.80
2022-10-04T05:43:26.359Z,3.60
2022-10-04T05:44:26.357Z,3.40
2022-10-04T05:45:26.444Z,3.50
2022-10-04T05:46:26.593Z,3.10
2022-10-04T05:47:26.316Z,3.50
2022-10-04T05:48:26.295Z,3.40
2022-10-04T05:49:26.320Z,3.40
2022-10-04T05:50:26.290Z,3.70
2022-10-04T05:51:26.264Z,3.30
2022-10-04T05:52:26.402Z,3.50
2022-10-04T05:53:26.252Z,3.60
2022-10-04T05:54:27.138Z,3.10
2022-10-04T05:55:26.244Z,3.50
2022-10-04T05:56:26.234Z,3.70
2022-10-04T05:57:26.198Z,4.10
2022-10-04T05:58:26.196Z,4.40
2022-10-04T05:59:26.175Z,3.70
2022-10-04T06:00:26.325Z,3.50
2022-10-04T06:01:26.228Z,3.60
2022-10-04T06:02:26.194Z,4.00
2022-10-04T06:03:26.141Z,3.30
2022-10-04T06:04:26.138Z,4.20
2022-10-04T06:05:29.037Z,3.60
2022-10-04T06:06:26.275Z,3.40
2022-10-04T06:07:26.101Z,3.50
2022-10-04T06:08:26.076Z,3.10
2022-10-04T06:09:26.071Z,3.50
2022-10-04T06:10:26.093Z,3.30
2022-10-04T06:11:26.062Z,3.30
2022-10-04T06:12:26.388Z,3.20
2022-10-04T06:13:26.068Z,3.40
2022-10-04T06:14:26.007Z,3.60
2022-10-04T06:15:26.020Z,3.40
2022-10-04T06:16:26.032Z,3.30
2022-10-04T06:17:25.985Z,3.40
2022-10-04T06:18:26.337Z,3.40
2022-10-04T06:19:25.964Z,3.30
2022-10-04T06:20:25.944Z,3.40
2022-10-04T06:21:25.942Z,3.40
2022-10-04T06:22:25.934Z,3.70
2022-10-04T06:23:25.933Z,3.30
2022-10-04T06:24:27.063Z,3.30
2022-10-04T06:25:25.898Z,3.20
2022-10-04T06:26:25.881Z,3.40
2022-10-04T06:27:25.873Z,3.50
2022-10-04T06:28:25.919Z,3.50
2022-10-04T06:29:25.857Z,3.80
2022-10-04T06:30:26.115Z,3.60
2022-10-04T06:31:25.826Z,3.50
2022-10-04T06:32:25.822Z,3.20
2022-10-04T06:33:25.804Z,3.30
2022-10-04T06:34:25.795Z,3.10
2022-10-04T06:35:25.792Z,3.20
2022-10-04T06:36:25.937Z,2.90
2022-10-04T06:37:25.763Z,3.20
2022-10-04T06:38:25.751Z,3.10
2022-10-04T06:39:25.742Z,3.10
2022-10-04T06:40:25.780Z,3.10
2022-10-04T06:41:25.715Z,3.30
2022-10-04T06:42:25.917Z,3.70
2022-10-04T06:43:25.697Z,3.30
2022-10-04T06:44:25.715Z,3.60
2022-10-04T06:45:25.681Z,3.70
2022-10-04T06:46:25.709Z,3.90
2022-10-04T06:47:25.654Z,3.80
2022-10-04T06:48:25.812Z,3.60
2022-10-04T06:49:25.650Z,3.30
2022-10-04T06:50:25.632Z,3.70
2022-10-04T06:51:25.634Z,3.40
2022-10-04T06:52:25.598Z,3.70
2022-10-04T06:53:25.583Z,3.30
2022-10-04T06:54:25.782Z,3.50
2022-10-04T06:55:25.574Z,3.30
2022-10-04T06:56:25.559Z,3.20
2022-10-04T06:57:25.545Z,3.20
2022-10-04T06:58:25.533Z,3.70
2022-10-04T06:59:25.531Z,3.40
2022-10-04T07:00:25.662Z,3.60
2022-10-04T07:01:25.549Z,3.30
2022-10-04T07:02:25.558Z,3.70
2022-10-04T07:03:25.496Z,3.30
2022-10-04T07:04:25.479Z,3.60
2022-10-04T07:05:25.460Z,3.40
2022-10-04T07:06:25.814Z,3.40
2022-10-04T07:07:25.459Z,3.40
2022-10-04T07:08:25.424Z,3.30
2022-10-04T07:09:25.427Z,3.30
2022-10-04T07:10:25.407Z,3.70
2022-10-04T07:11:25.412Z,3.60
2022-10-04T07:12:25.594Z,3.40
2022-10-04T07:13:25.373Z,3.40
2022-10-04T07:14:25.362Z,3.60
2022-10-04T07:15:25.359Z,3.90
2022-10-04T07:16:25.337Z,3.90
2022-10-04T07:17:25.330Z,3.50
2022-10-04T07:18:25.346Z,3.40
2022-10-04T07:19:25.319Z,3.70
2022-10-04T07:20:25.291Z,3.60
2022-10-04T07:21:25.282Z,3.50
2022-10-04T07:22:25.290Z,3.60
2022-10-04T07:23:28.556Z,3.00
2022-10-04T07:24:25.306Z,3.20
2022-10-04T07:25:25.253Z,3.70
2022-10-04T07:26:25.229Z,3.60
2022-10-04T07:27:25.220Z,3.90
2022-10-04T07:28:25.278Z,3.60
2022-10-04T07:29:25.199Z,3.70
2022-10-04T07:30:25.478Z,3.40
2022-10-04T07:31:25.284Z,3.50
2022-10-04T07:32:25.178Z,3.60
2022-10-04T07:33:25.164Z,3.90
2022-10-04T07:34:25.153Z,4.00
2022-10-04T07:35:25.143Z,3.50
2022-10-04T07:36:25.316Z,3.70
2022-10-04T07:37:25.120Z,4.10
2022-10-04T07:38:25.102Z,3.60
2022-10-04T07:39:25.115Z,3.50
2022-10-04T07:40:25.167Z,3.60
2022-10-04T07:41:25.085Z,3.70
2022-10-04T07:42:25.073Z,3.90
2022-10-04T07:43:25.051Z,3.80
2022-10-04T07:44:25.037Z,3.80
2022-10-04T07:45:29.733Z,4.10
2022-10-04T07:46:26.047Z,4.90
2022-10-04T07:47:25.022Z,4.90
2022-10-04T07:48:25.043Z,4.30
2022-10-04T07:49:32.483Z,4.60
2022-10-04T07:50:33.480Z,4.30
2022-10-04T07:51:32.472Z,3.90
2022-10-04T07:52:24.940Z,3.50
2022-10-04T07:53:33.628Z,3.60
2022-10-04T07:54:32.438Z,3.30
2022-10-04T07:55:32.422Z,4.00
2022-10-04T07:56:33.117Z,3.00
2022-10-04T07:57:32.444Z,3.50
2022-10-04T07:58:32.385Z,3.80
2022-10-04T07:59:33.583Z,3.70
2022-10-04T08:00:32.367Z,3.50
2022-10-04T08:01:24.851Z,3.50
2022-10-04T08:02:30.175Z,3.20
2022-10-04T08:03:25.843Z,3.00
2022-10-04T08:04:24.841Z,3.10
2022-10-04T08:05:24.971Z,3.40
2022-10-04T08:06:24.827Z,3.50
2022-10-04T08:07:25.016Z,3.40
2022-10-04T08:08:24.772Z,3.40
2022-10-04T08:09:24.765Z,3.40
2022-10-04T08:10:24.759Z,3.40
2022-10-04T08:11:24.747Z,3.70
2022-10-04T08:12:24.731Z,3.70
2022-10-04T08:13:24.909Z,3.60
2022-10-04T08:14:24.712Z,3.60
2022-10-04T08:15:24.715Z,3.40
2022-10-04T08:16:24.794Z,3.40
2022-10-04T08:17:24.702Z,3.10
2022-10-04T08:18:24.674Z,3.70
2022-10-04T08:19:24.824Z,3.30
2022-10-04T08:20:24.635Z,3.00
2022-10-04T08:21:24.627Z,3.30
2022-10-04T08:22:24.635Z,3.00
2022-10-04T08:23:24.611Z,3.40
2022-10-04T08:24:24.613Z,3.50
2022-10-04T08:25:24.756Z,3.20
2022-10-04T08:26:24.577Z,2.90
2022-10-04T08:27:24.572Z,2.90
2022-10-04T08:28:24.592Z,3.00
2022-10-04T08:29:24.542Z,2.80
2022-10-04T08:30:24.536Z,3.40
2022-10-04T08:31:24.837Z,3.40
2022-10-04T08:32:24.509Z,3.00
2022-10-04T08:33:24.513Z,3.50
2022-10-04T08:34:24.479Z,3.00
2022-10-04T08:35:24.473Z,3.10
2022-10-04T08:36:24.474Z,3.10
2022-10-04T08:37:24.799Z,3.10
2022-10-04T08:38:24.451Z,3.70
2022-10-04T08:39:24.443Z,3.10
2022-10-04T08:40:24.433Z,3.70
2022-10-04T08:41:24.413Z,3.20
2022-10-04T08:42:24.401Z,3.80
2022-10-04T08:43:24.588Z,3.50
2022-10-04T08:44:24.393Z,3.60
2022-10-04T08:45:24.382Z,3.70
2022-10-04T08:46:24.421Z,4.40
2022-10-04T08:47:24.341Z,4.20
2022-10-04T08:48:24.335Z,4.30
2022-10-04T08:49:24.514Z,4.70
2022-10-04T08:50:24.312Z,4.00
2022-10-04T08:51:24.307Z,3.80
2022-10-04T08:52:24.292Z,3.60
2022-10-04T08:53:24.282Z,3.50
2022-10-04T08:54:24.273Z,3.60
2022-10-04T08:55:24.412Z,4.20
2022-10-04T08:56:24.273Z,4.30
2022-10-04T08:57:24.235Z,4.20
2022-10-04T08:58:24.222Z,5.00
2022-10-04T08:59:24.227Z,4.60
2022-10-04T09:00:24.201Z,4.50
2022-10-04T09:01:24.418Z,4.10
2022-10-04T09:02:24.247Z,4.50
2022-10-04T09:03:24.982Z,3.90
2022-10-04T09:04:24.161Z,4.80
2022-10-04T09:05:24.151Z,4.50
2022-10-04T09:06:24.135Z,4.90
2022-10-04T09:07:24.306Z,3.80
2022-10-04T09:08:24.127Z,4.30
2022-10-04T09:09:24.101Z,4.10
2022-10-04T09:10:25.236Z,4.20
2022-10-04T09:11:24.084Z,3.90
2022-10-04T09:12:24.079Z,3.90
2022-10-04T09:13:24.242Z,4.20
2022-10-04T09:14:24.059Z,4.50
2022-10-04T09:15:24.031Z,4.30
2022-10-04T09:16:24.115Z,3.70
2022-10-04T09:17:24.033Z,4.00
2022-10-04T09:18:24.023Z,4.10
2022-10-04T09:19:24.163Z,4.00
2022-10-04T09:20:38.478Z,3.90
2022-10-04T09:21:24.974Z,3.70
2022-10-04T09:22:23.968Z,3.50
2022-10-04T09:23:23.956Z,3.60
2022-10-04T09:24:23.962Z,3.70
2022-10-04T09:25:24.150Z,4.10
2022-10-04T09:26:23.932Z,3.80
2022-10-04T09:27:53.199Z,4.00
2022-10-04T09:28:24.929Z,4.10
2022-10-04T09:29:23.890Z,4.00
2022-10-04T09:30:23.885Z,4.10
2022-10-04T09:31:24.160Z,4.50
2022-10-04T09:32:23.881Z,4.10
2022-10-04T09:33:23.848Z,4.00
2022-10-04T09:34:23.835Z,3.60
2022-10-04T09:35:23.821Z,3.60
2022-10-04T09:36:23.817Z,3.80
2022-10-04T09:37:23.958Z,3.40
2022-10-04T09:38:23.802Z,3.20
2022-10-04T09:39:30.481Z,3.40
2022-10-04T09:40:24.769Z,3.00
2022-10-04T09:41:23.755Z,2.90
2022-10-04T09:42:23.759Z,2.80
2022-10-04T09:43:23.731Z,2.80
2022-10-04T09:44:23.721Z,2.80
2022-10-04T09:45:23.886Z,3.00
2022-10-04T09:46:23.769Z,3.10
2022-10-04T09:47:23.691Z,2.40
2022-10-04T09:48:23.681Z,2.50
2022-10-04T09:49:23.673Z,2.80
2022-10-04T09:50:23.661Z,2.70
2022-10-04T09:51:23.830Z,2.70
2022-10-04T09:52:23.656Z,2.50
2022-10-04T09:53:23.620Z,2.50
2022-10-04T09:54:23.612Z,2.40
2022-10-04T09:55:23.782Z,2.70
2022-10-04T09:56:23.611Z,2.50
2022-10-04T09:57:23.582Z,2.20
2022-10-04T09:58:23.573Z,2.30
2022-10-04T09:59:23.565Z,1.80
2022-10-04T10:00:23.585Z,1.90
2022-10-04T10:01:23.762Z,1.90
2022-10-04T10:02:23.563Z,2.00
2022-10-04T10:03:23.592Z,2.10
2022-10-04T10:04:23.528Z,2.30
2022-10-04T10:05:23.499Z,2.00
2022-10-04T10:06:23.488Z,2.00
2022-10-04T10:07:23.820Z,2.10
2022-10-04T10:08:27.975Z,1.70
2022-10-04T10:09:23.451Z,2.10
2022-10-04T10:10:23.441Z,1.90
2022-10-04T10:11:23.420Z,1.70
2022-10-04T10:12:23.428Z,1.80
2022-10-04T10:13:23.750Z,1.60
2022-10-04T10:14:23.421Z,2.20
2022-10-04T10:15:23.401Z,2.00
2022-10-04T10:16:23.449Z,1.50
2022-10-04T10:17:23.361Z,1.70
2022-10-04T10:18:23.361Z,1.70
2022-10-04T10:19:28.063Z,1.90
2022-10-04T10:20:23.337Z,2.20
2022-10-04T10:21:23.329Z,3.10
2022-10-04T10:22:23.302Z,3.90
2022-10-04T10:23:23.290Z,3.40
2022-10-04T10:24:23.300Z,3.00
2022-10-04T10:25:23.461Z,2.90
2022-10-04T10:26:23.251Z,2.10
2022-10-04T10:27:23.260Z,1.90
2022-10-04T10:28:23.316Z,1.80
2022-10-04T10:29:23.253Z,1.70
2022-10-04T10:30:23.221Z,1.60
2022-10-04T10:31:23.431Z,1.80
2022-10-04T10:32:23.201Z,1.80
2022-10-04T10:33:23.210Z,1.80
2022-10-04T10:34:23.194Z,1.60
2022-10-04T10:35:23.162Z,2.00
2022-10-04T10:36:23.162Z,1.90
2022-10-04T10:37:23.300Z,1.10
2022-10-04T10:38:23.156Z,1.70
2022-10-04T10:39:23.121Z,1.60
2022-10-04T10:40:23.125Z,2.10
2022-10-04T10:41:23.091Z,1.60
2022-10-04T10:42:23.096Z,1.30
2022-10-04T10:43:23.324Z,1.50
2022-10-04T10:44:23.069Z,1.60
2022-10-04T10:45:23.054Z,2.00
2022-10-04T10:46:23.089Z,1.70
2022-10-04T10:47:23.032Z,1.90
2022-10-04T10:48:23.023Z,1.50
2022-10-04T10:49:23.182Z,1.80
2022-10-04T10:50:23.002Z,1.60
2022-10-04T10:51:23.014Z,1.70
2022-10-04T10:52:23.006Z,1.50
2022-10-04T10:53:22.982Z,1.80
2022-10-04T10:54:22.978Z,1.60
2022-10-04T10:55:23.142Z,1.40
2022-10-04T10:56:26.703Z,1.50
2022-10-04T10:57:23.926Z,1.80
2022-10-04T10:58:22.917Z,1.20
2022-10-04T10:59:22.920Z,1.80
2022-10-04T11:00:22.896Z,1.60
2022-10-04T11:01:23.129Z,1.50
2022-10-04T11:02:37.218Z,1.90
2022-10-04T11:03:27.202Z,1.80
2022-10-04T11:04:23.852Z,1.90
2022-10-04T11:05:22.842Z,1.80
2022-10-04T11:06:22.864Z,2.00
2022-10-04T11:07:23.011Z,2.00
2022-10-04T11:08:22.866Z,1.80
2022-10-04T11:09:22.811Z,1.60
2022-10-04T11:10:22.799Z,1.50
2022-10-04T11:11:22.791Z,1.80
2022-10-04T11:12:22.781Z,1.40
2022-10-04T11:13:22.902Z,1.60
2022-10-04T11:14:22.773Z,1.60
2022-10-04T11:15:22.788Z,1.60
2022-10-04T11:16:22.758Z,1.60
2022-10-04T11:17:22.721Z,1.60
2022-10-04T11:18:22.704Z,2.00
2022-10-04T11:19:23.092Z,2.00
2022-10-04T11:20:22.676Z,1.80
2022-10-04T11:21:22.694Z,3.90
2022-10-04T11:22:22.738Z,3.10
2022-10-04T11:23:22.660Z,2.40
2022-10-04T11:24:22.677Z,2.00
2022-10-04T11:25:22.867Z,2.10
2022-10-04T11:26:22.612Z,1.60
2022-10-04T11:27:22.591Z,1.60
2022-10-04T11:28:22.700Z,1.80
2022-10-04T11:29:22.563Z,1.40
2022-10-04T11:30:22.561Z,1.60
2022-10-04T11:31:22.830Z,1.70
2022-10-04T11:32:22.582Z,1.80
2022-10-04T11:33:22.553Z,1.90
2022-10-04T11:34:22.533Z,1.70
2022-10-04T11:35:22.510Z,1.50
2022-10-04T11:36:22.529Z,1.90
2022-10-04T11:37:22.673Z,2.00
2022-10-04T11:38:22.512Z,1.50
2022-10-04T11:39:22.525Z,1.90
2022-10-04T11:40:22.457Z,1.80
2022-10-04T11:41:22.468Z,2.00
2022-10-04T11:42:22.453Z,1.80
2022-10-04T11:43:22.594Z,1.30
2022-10-04T11:44:22.482Z,1.30
2022-10-04T11:45:22.413Z,1.30
2022-10-04T11:46:22.425Z,1.40
2022-10-04T11:47:22.393Z,1.30
2022-10-04T11:48:22.553Z,1.40
2022-10-04T11:49:22.396Z,1.30
2022-10-04T11:50:22.393Z,1.20
2022-10-04T11:51:22.354Z,1.30
2022-10-04T11:52:22.393Z,1.60
2022-10-04T11:53:22.342Z,1.30
2022-10-04T11:54:22.531Z,1.40
2022-10-04T11:55:22.293Z,1.00
2022-10-04T11:56:22.288Z,1.30
2022-10-04T11:57:22.283Z,0.90
2022-10-04T11:58:22.270Z,1.30
2022-10-04T11:59:22.253Z,1.90
2022-10-04T12:00:22.453Z,1.20
2022-10-04T12:01:22.279Z,1.00
2022-10-04T12:02:22.223Z,1.00
2022-10-04T12:03:22.247Z,1.00
2022-10-04T12:04:22.313Z,1.10
2022-10-04T12:05:22.187Z,1.20
2022-10-04T12:06:46.858Z,1.10
2022-10-04T12:07:30.941Z,1.30
2022-10-04T12:08:29.679Z,1.50
2022-10-04T12:09:29.706Z,1.40
2022-10-04T12:10:30.648Z,1.30
2022-10-04T12:11:30.367Z,1.10
2022-10-04T12:12:32.056Z,1.40
2022-10-04T12:13:40.605Z,1.40
2022-10-04T12:14:30.613Z,1.30
2022-10-04T12:15:45.122Z,1.50
2022-10-04T12:16:49.001Z,1.80
2022-10-04T12:17:30.584Z,1.40
2022-10-04T12:18:22.259Z,1.70
2022-10-04T12:19:22.030Z,1.40
2022-10-04T12:20:22.266Z,1.40
2022-10-04T12:21:22.013Z,1.40
2022-10-04T12:22:22.020Z,1.80
2022-10-04T12:23:22.010Z,1.50
2022-10-04T12:24:21.977Z,1.50
2022-10-04T12:25:21.990Z,1.40
2022-10-04T12:26:22.221Z,1.20
2022-10-04T12:27:21.942Z,1.40
2022-10-04T12:28:21.964Z,1.40
2022-10-04T12:29:21.928Z,1.30
2022-10-04T12:30:21.899Z,1.50
2022-10-04T12:31:21.946Z,1.50
2022-10-04T12:32:22.080Z,1.30
2022-10-04T12:33:21.870Z,1.50
2022-10-04T12:34:21.874Z,1.80
2022-10-04T12:35:21.855Z,1.60
2022-10-04T12:36:21.865Z,1.70
2022-10-04T12:37:21.846Z,1.50
2022-10-04T12:38:22.074Z,1.40
2022-10-04T12:39:21.833Z,1.60
2022-10-04T12:40:21.821Z,1.10
2022-10-04T12:41:21.789Z,1.50
2022-10-04T12:42:21.771Z,1.30
2022-10-04T12:43:21.786Z,1.40
2022-10-04T12:44:21.936Z,1.20
2022-10-04T12:45:21.749Z,1.20
2022-10-04T12:46:21.813Z,1.40
2022-10-04T12:47:21.729Z,1.10
2022-10-04T12:48:21.722Z,1.30
2022-10-04T12:49:21.719Z,1.30
2022-10-04T12:50:21.920Z,1.30
2022-10-04T12:51:21.672Z,0.90
2022-10-04T12:52:21.695Z,1.30
2022-10-04T12:53:21.650Z,1.20
2022-10-04T12:54:21.659Z,1.50
2022-10-04T12:55:21.650Z,1.30
2022-10-04T12:56:21.906Z,1.10
2022-10-04T12:57:21.623Z,1.30
2022-10-04T12:58:21.600Z,1.00
2022-10-04T12:59:21.611Z,1.30
2022-10-04T13:00:21.583Z,1.30
2022-10-04T13:01:21.636Z,1.50
2022-10-04T13:02:21.967Z,1.10
2022-10-04T13:03:21.920Z,1.40
2022-10-04T13:04:21.533Z,1.20
2022-10-04T13:05:21.534Z,1.30
2022-10-04T13:06:21.506Z,1.60
2022-10-04T13:07:21.628Z,1.30
2022-10-04T13:08:21.497Z,1.20
2022-10-04T13:09:21.703Z,1.10
2022-10-04T13:10:25.775Z,1.10
2022-10-04T13:11:21.485Z,1.40
2022-10-04T13:12:21.448Z,1.20
2022-10-04T13:13:21.444Z,1.40
2022-10-04T13:14:21.433Z,1.00
2022-10-04T13:15:21.685Z,1.40
2022-10-04T13:17:30.852Z,1.10
2022-10-04T13:18:22.419Z,1.10
2022-10-04T13:19:21.362Z,1.10
2022-10-04T13:20:21.372Z,1.40
2022-10-04T13:21:21.514Z,1.20
2022-10-04T13:22:43.995Z,1.20
2022-10-04T13:23:22.335Z,1.30
2022-10-04T13:24:21.311Z,1.30
2022-10-04T13:25:21.302Z,1.10
2022-10-04T13:26:21.293Z,1.50
2022-10-04T13:27:21.464Z,1.50